createdAt,value
2019-01-12T00:00:54.973Z,66.77
2019-01-12T00:03:23.746Z,59.70
2019-01-12T00:05:52.406Z,57.63
2019-01-12T00:08:21.081Z,58.37
2019-01-12T00:10:49.761Z,58.47
2019-01-12T00:13:18.444Z,60.80
2019-01-12T00:15:47.186Z,60.87
2019-01-12T00:18:15.821Z,62.63
2019-01-12T00:20:44.468Z,54.00
2019-01-12T00:23:13.132Z,63.23
2019-01-12T00:25:41.788Z,57.00
2019-01-12T00:28:10.518Z,57.57
2019-01-12T00:30:39.180Z,57.00
2019-01-12T00:33:07.863Z,54.30
2019-01-12T00:35:36.530Z,56.57
2019-01-12T00:38:05.198Z,57.47
2019-01-12T00:40:33.891Z,56.30
2019-01-12T00:43:03.010Z,58.07
2019-01-12T00:45:33.708Z,58.43
2019-01-12T00:48:02.470Z,54.93
2019-01-12T00:50:31.108Z,52.93
2019-01-12T00:52:59.782Z,52.50
2019-01-12T00:55:28.421Z,54.40
2019-01-12T00:57:57.101Z,54.60
2019-01-12T01:00:25.754Z,48.03
2019-01-12T01:02:54.417Z,47.83
2019-01-12T01:05:23.099Z,57.10
2019-01-12T01:07:51.748Z,52.53
2019-01-12T01:10:21.620Z,50.43
2019-01-12T01:12:52.766Z,58.90
2019-01-12T01:15:21.404Z,52.63
2019-01-12T01:17:50.077Z,47.73
2019-01-12T01:20:18.744Z,45.47
2019-01-12T01:22:47.450Z,40.20
2019-01-12T01:25:16.111Z,38.53
2019-01-12T01:27:44.780Z,42.40
2019-01-12T01:30:18.371Z,43.90
2019-01-12T01:32:47.511Z,44.00
2019-01-12T01:35:17.742Z,48.40
2019-01-12T01:37:46.393Z,43.80
2019-01-12T01:40:16.564Z,42.03
2019-01-12T01:42:45.219Z,46.63
2019-01-12T01:45:15.364Z,43.53
2019-01-12T01:47:44.008Z,45.83
2019-01-12T01:50:13.963Z,39.40
2019-01-12T01:52:42.637Z,41.27
2019-01-12T01:55:11.313Z,43.67
2019-01-12T01:57:40.054Z,43.80
2019-01-12T02:00:16.109Z,44.37
2019-01-12T02:02:44.746Z,42.43
2019-01-12T02:05:13.507Z,45.73
2019-01-12T02:07:42.182Z,40.13
2019-01-12T02:10:16.516Z,40.17
2019-01-12T02:12:45.227Z,41.63
2019-01-12T02:15:15.487Z,44.03
2019-01-12T02:17:44.142Z,47.57
2019-01-12T02:20:12.807Z,43.70
2019-01-12T02:22:41.441Z,48.00
2019-01-12T02:25:10.988Z,48.57
2019-01-12T02:27:39.692Z,46.30
2019-01-12T02:30:21.952Z,51.27
2019-01-12T02:32:50.595Z,42.17
2019-01-12T02:35:19.266Z,41.10
2019-01-12T02:37:47.913Z,37.77
2019-01-12T02:40:16.568Z,38.33
2019-01-12T02:42:45.282Z,44.83
2019-01-12T02:45:14.144Z,50.00
2019-01-12T02:47:42.784Z,48.73
2019-01-12T02:50:12.647Z,39.97
2019-01-12T02:52:41.315Z,39.70
2019-01-12T02:55:09.993Z,44.87
2019-01-12T02:57:38.671Z,40.60
2019-01-12T03:00:10.781Z,43.30
2019-01-12T03:02:39.480Z,37.83
2019-01-12T03:05:08.272Z,36.70
2019-01-12T03:07:36.932Z,38.70
2019-01-12T03:10:08.459Z,32.23
2019-01-12T03:12:37.111Z,31.20
2019-01-12T03:15:08.589Z,28.80
2019-01-12T03:17:37.552Z,34.43
2019-01-12T03:20:11.970Z,36.30
2019-01-12T03:22:40.625Z,31.60
2019-01-12T03:25:17.126Z,40.47
2019-01-12T03:27:39.688Z,42.80
2019-01-12T03:30:11.667Z,41.97
2019-01-12T03:32:40.326Z,39.43
2019-01-12T03:35:08.967Z,41.33
2019-01-12T03:37:37.681Z,38.43
2019-01-12T03:40:09.589Z,45.10
2019-01-12T03:42:38.241Z,48.87
2019-01-12T03:45:09.442Z,52.67
2019-01-12T03:47:39.655Z,50.53
2019-01-12T03:50:11.792Z,64.67
2019-01-12T03:52:40.439Z,117.27
2019-01-12T03:55:09.095Z,161.73
2019-01-12T03:57:37.782Z,147.43
2019-01-12T04:00:15.277Z,134.83
2019-01-12T04:02:45.144Z,122.10
2019-01-12T04:05:13.812Z,112.80
2019-01-12T04:07:45.234Z,117.10
2019-01-12T04:10:14.437Z,113.60
2019-01-12T04:12:43.145Z,90.90
2019-01-12T04:15:13.297Z,90.97
2019-01-12T04:17:42.029Z,81.57
2019-01-12T04:20:12.865Z,72.47
2019-01-12T04:22:41.535Z,66.70
2019-01-12T04:25:10.253Z,60.07
2019-01-12T04:27:38.938Z,51.13
2019-01-12T04:30:10.860Z,50.17
2019-01-12T04:32:39.516Z,43.73
2019-01-12T04:35:08.147Z,38.67
2019-01-12T04:37:36.813Z,38.53
2019-01-12T04:40:13.871Z,37.67
2019-01-12T04:42:42.616Z,40.33
2019-01-12T04:45:11.246Z,33.57
2019-01-12T04:47:39.901Z,36.23
2019-01-12T04:50:11.311Z,38.58
2019-01-12T04:52:39.984Z,40.60
2019-01-12T04:55:08.653Z,40.87
2019-01-12T04:57:37.315Z,39.93
2019-01-12T05:00:09.036Z,43.30
2019-01-12T05:02:37.749Z,40.23
2019-01-12T05:05:06.453Z,45.43
2019-01-12T05:07:35.130Z,44.07
2019-01-12T05:10:04.605Z,49.03
2019-01-12T05:12:33.282Z,38.83
2019-01-12T05:15:01.977Z,53.97
2019-01-12T05:17:30.661Z,52.73
2019-01-12T05:19:59.332Z,47.83
2019-01-12T05:22:28.046Z,48.33
2019-01-12T05:24:56.697Z,48.50
2019-01-12T05:27:25.454Z,53.57
2019-01-12T05:29:54.175Z,48.67
2019-01-12T05:32:22.833Z,47.90
2019-01-12T05:34:51.544Z,48.27
2019-01-12T05:37:20.206Z,52.97
2019-01-12T05:39:48.873Z,52.60
2019-01-12T05:42:17.540Z,47.97
2019-01-12T05:44:46.242Z,48.13
2019-01-12T05:47:14.912Z,46.63
2019-01-12T05:49:43.559Z,57.20
2019-01-12T05:52:12.270Z,47.33
2019-01-12T05:54:40.933Z,44.57
2019-01-12T05:57:09.622Z,41.73
2019-01-12T05:59:38.282Z,40.93
2019-01-12T06:02:06.962Z,40.80
2019-01-12T06:04:35.616Z,40.37
2019-01-12T06:07:04.274Z,38.43
2019-01-12T06:09:33.948Z,38.23
2019-01-12T06:12:02.589Z,36.70
2019-01-12T06:14:31.259Z,33.97
2019-01-12T06:16:59.921Z,35.73
2019-01-12T06:19:28.604Z,32.93
2019-01-12T06:21:57.266Z,31.30
2019-01-12T06:24:25.959Z,32.87
2019-01-12T06:26:54.615Z,33.07
2019-01-12T06:29:23.304Z,33.77
2019-01-12T06:31:52.014Z,30.00
2019-01-12T06:34:21.894Z,29.03
2019-01-12T06:36:50.576Z,31.40
2019-01-12T06:39:19.239Z,35.33
2019-01-12T06:41:47.901Z,38.97
2019-01-12T06:44:18.588Z,34.07
2019-01-12T06:46:47.234Z,36.63
2019-01-12T06:49:15.929Z,41.27
2019-01-12T06:51:44.586Z,43.10
2019-01-12T06:54:25.537Z,31.73
2019-01-12T06:56:45.465Z,31.27
2019-01-12T06:59:14.168Z,35.33
2019-01-12T07:01:42.921Z,32.50
2019-01-12T07:04:11.643Z,28.50
2019-01-12T07:06:42.715Z,29.43
2019-01-12T07:09:11.381Z,28.77
2019-01-12T07:11:40.039Z,31.70
2019-01-12T07:14:08.729Z,28.17
2019-01-12T07:16:41.376Z,29.00
2019-01-12T07:19:10.063Z,31.70
2019-01-12T07:21:38.801Z,32.17
2019-01-12T07:24:07.723Z,25.63
2019-01-12T07:26:36.714Z,24.23
2019-01-12T07:29:07.030Z,28.77
2019-01-12T07:31:37.553Z,36.97
2019-01-12T07:34:06.536Z,36.00
2019-01-12T07:36:35.189Z,37.50
2019-01-12T07:39:11.715Z,35.27
2019-01-12T07:41:35.869Z,36.03
2019-01-12T07:44:04.574Z,30.37
2019-01-12T07:46:33.236Z,38.27
2019-01-12T07:49:01.952Z,30.37
2019-01-12T07:51:36.410Z,35.83
2019-01-12T07:54:05.069Z,39.40
2019-01-12T07:56:33.792Z,45.13
2019-01-12T07:59:02.505Z,45.03
2019-01-12T08:01:31.189Z,42.83
2019-01-12T08:04:01.424Z,43.70
2019-01-12T08:06:30.927Z,35.63
2019-01-12T08:08:59.752Z,41.03
2019-01-12T08:11:28.401Z,40.40
2019-01-12T08:13:58.813Z,38.10
2019-01-12T08:16:27.498Z,32.70
2019-01-12T08:18:57.329Z,40.00
2019-01-12T08:21:28.182Z,48.87
2019-01-12T08:23:56.848Z,46.97
2019-01-12T08:26:31.189Z,41.03
2019-01-12T08:28:55.968Z,34.30
2019-01-12T08:31:24.630Z,38.57
2019-01-12T08:33:56.332Z,38.97
2019-01-12T08:36:24.993Z,37.67
2019-01-12T08:38:53.659Z,38.40
2019-01-12T08:41:22.322Z,39.23
2019-01-12T08:43:51.140Z,31.93
2019-01-12T08:46:19.835Z,32.43
2019-01-12T08:48:48.701Z,35.07
2019-01-12T08:51:20.515Z,34.70
2019-01-12T08:53:49.231Z,31.03
2019-01-12T08:56:24.726Z,33.03
2019-01-12T08:58:54.689Z,33.53
2019-01-12T09:01:28.039Z,33.80
2019-01-12T09:03:56.776Z,30.83
2019-01-12T09:06:33.918Z,36.63
2019-01-12T09:09:02.600Z,34.03
2019-01-12T09:11:31.341Z,32.50
2019-01-12T09:14:00.106Z,36.20
2019-01-12T09:16:30.314Z,36.63
2019-01-12T09:19:00.545Z,44.48
2019-01-12T09:21:29.436Z,39.10
2019-01-12T09:23:58.901Z,35.97
2019-01-12T09:26:27.612Z,37.47
2019-01-12T09:28:56.510Z,31.03
2019-01-12T09:31:25.223Z,39.47
2019-01-12T09:33:53.906Z,31.27
2019-01-12T09:36:26.750Z,42.73
2019-01-12T09:38:55.494Z,32.10
2019-01-12T09:41:30.189Z,33.53
2019-01-12T09:46:53.496Z,35.80
2019-01-12T09:49:26.198Z,31.77
2019-01-12T09:51:56.400Z,30.77
2019-01-12T09:54:25.083Z,31.03
2019-01-12T09:56:58.029Z,31.60
2019-01-12T09:59:27.070Z,40.80
2019-01-12T10:01:57.331Z,24.80
2019-01-12T10:04:26.038Z,32.30
2019-01-12T10:06:54.770Z,34.07
2019-01-12T10:09:23.425Z,33.33
2019-01-12T10:11:52.164Z,31.37
2019-01-12T10:14:23.623Z,30.73
2019-01-12T10:16:52.296Z,35.73
2019-01-12T10:19:25.238Z,38.03
2019-01-12T10:21:55.624Z,34.67
2019-01-12T10:24:24.364Z,30.07
2019-01-12T10:26:58.549Z,32.40
2019-01-12T10:29:26.259Z,43.02
2019-01-12T10:32:18.364Z,36.20
2019-01-12T10:34:57.730Z,28.00
2019-01-12T10:37:26.446Z,41.40
2019-01-12T10:40:35.701Z,41.40
2019-01-12T10:43:04.241Z,37.30
2019-01-12T10:45:34.516Z,42.00
2019-01-12T10:51:44.452Z,37.33
2019-01-12T10:54:28.657Z,35.13
2019-01-12T10:56:57.358Z,33.33
2019-01-12T10:59:39.845Z,38.57
2019-01-12T11:06:20.551Z,34.53
2019-01-12T11:10:04.141Z,43.27
2019-01-12T11:11:36.614Z,45.70
2019-01-12T11:16:56.493Z,41.73
2019-01-12T11:19:26.713Z,39.13
2019-01-12T11:21:58.156Z,51.13
2019-01-12T11:24:26.799Z,46.37
2019-01-12T11:26:55.538Z,41.70
2019-01-12T11:29:26.937Z,44.27
2019-01-12T11:31:55.689Z,35.27
2019-01-12T11:34:24.449Z,45.90
2019-01-12T11:36:53.141Z,45.10
2019-01-12T11:39:24.742Z,58.83
2019-01-12T11:41:53.397Z,46.13
2019-01-12T11:44:22.097Z,50.03
2019-01-12T11:46:50.951Z,48.67
2019-01-12T11:49:19.760Z,47.67
2019-01-12T11:51:48.548Z,47.53
2019-01-12T11:54:17.277Z,43.70
2019-01-12T11:56:46.152Z,47.80
2019-01-12T11:59:14.865Z,43.07
2019-01-12T12:01:43.597Z,45.90
2019-01-12T12:04:12.281Z,40.40
2019-01-12T12:06:41.026Z,46.00
2019-01-12T12:09:09.701Z,44.43
2019-01-12T12:11:38.468Z,45.30
2019-01-12T12:14:07.132Z,43.83
2019-01-12T12:16:35.819Z,43.30
2019-01-12T12:19:04.562Z,46.27
2019-01-12T12:21:33.232Z,46.77
2019-01-12T12:24:01.936Z,44.43
2019-01-12T12:26:30.629Z,53.47
2019-01-12T12:29:00.921Z,44.87
2019-01-12T12:31:29.602Z,50.63
2019-01-12T12:33:58.354Z,45.47
2019-01-12T12:36:27.051Z,47.57
2019-01-12T12:38:55.839Z,45.37
2019-01-12T12:41:24.638Z,42.75
2019-01-12T12:43:53.304Z,50.27
2019-01-12T12:46:22.047Z,76.57
2019-01-12T12:48:50.800Z,45.17
2019-01-12T12:51:19.680Z,48.17
2019-01-12T12:53:48.353Z,55.80
2019-01-12T12:56:17.018Z,56.70
2019-01-12T12:58:45.718Z,60.53
2019-01-12T13:01:15.325Z,55.93
2019-01-12T13:03:44.010Z,61.73
2019-01-12T13:06:14.209Z,63.90
2019-01-12T13:08:48.456Z,59.40
2019-01-12T13:11:14.957Z,58.97
2019-01-12T13:13:45.570Z,55.80
2019-01-12T13:16:16.430Z,52.37
2019-01-12T13:18:45.131Z,62.07
2019-01-12T13:21:14.869Z,54.00
2019-01-12T13:23:44.168Z,51.37
2019-01-12T13:29:30.646Z,49.60
2019-01-12T13:32:08.600Z,38.20
2019-01-12T13:34:37.250Z,47.57
2019-01-12T13:37:07.436Z,50.77
2019-01-12T13:39:49.284Z,45.20
2019-01-12T13:42:32.024Z,48.73
2019-01-12T13:45:01.351Z,45.73
2019-01-12T13:47:30.160Z,41.03
2019-01-12T13:49:58.897Z,42.63
2019-01-12T13:52:27.525Z,52.77
2019-01-12T13:54:56.738Z,41.50
2019-01-12T13:57:25.382Z,47.90
2019-01-12T13:59:54.552Z,43.07
2019-01-12T14:02:23.331Z,43.73
2019-01-12T14:04:52.988Z,41.43
2019-01-12T14:07:21.782Z,40.83
2019-01-12T14:09:50.576Z,47.30
2019-01-12T14:12:20.137Z,41.07
2019-01-12T14:14:49.075Z,40.93
2019-01-12T14:17:18.870Z,44.00
2019-01-12T14:19:48.097Z,45.10
2019-01-12T14:22:16.934Z,44.40
2019-01-12T14:24:47.256Z,49.00
2019-01-12T14:27:17.387Z,48.13
2019-01-12T14:30:15.426Z,55.57
2019-01-12T14:32:38.702Z,49.07
2019-01-12T14:35:13.698Z,47.90
2019-01-12T14:37:45.408Z,60.27
2019-01-12T14:40:17.200Z,54.93
2019-01-12T14:42:47.091Z,52.73
2019-01-12T14:45:21.748Z,46.10
2019-01-12T14:47:52.532Z,55.93
2019-01-12T14:50:21.837Z,49.50
2019-01-12T14:52:50.495Z,46.80
2019-01-12T14:55:22.305Z,51.63
2019-01-12T14:58:02.038Z,55.63
2019-01-12T15:00:30.430Z,52.80
2019-01-12T15:03:00.942Z,51.77
2019-01-12T15:05:30.074Z,53.07
2019-01-12T15:08:00.144Z,47.67
2019-01-12T15:10:29.554Z,40.77
2019-01-12T15:13:04.893Z,46.73
2019-01-12T15:15:37.240Z,51.90
2019-01-12T15:18:07.303Z,49.13
2019-01-12T15:20:37.627Z,52.83
2019-01-12T15:23:10.574Z,46.33
2019-01-12T15:25:39.667Z,48.87
2019-01-12T15:28:09.466Z,46.57
2019-01-12T15:30:40.000Z,50.97
2019-01-12T15:33:08.837Z,52.07
2019-01-12T15:35:37.776Z,58.27
2019-01-12T15:38:08.432Z,51.00
2019-01-12T15:40:38.691Z,63.87
2019-01-12T15:43:07.523Z,61.10
2019-01-12T15:45:41.111Z,54.37
2019-01-12T15:48:09.940Z,52.23
2019-01-12T15:50:39.000Z,59.13
2019-01-12T15:53:09.392Z,48.60
2019-01-12T15:55:38.936Z,49.93
2019-01-12T16:01:10.422Z,54.03
2019-01-12T16:03:42.738Z,53.87
2019-01-12T16:06:14.315Z,55.17
2019-01-12T16:08:44.653Z,54.73
2019-01-12T16:11:24.298Z,55.40
2019-01-12T16:13:48.795Z,51.07
2019-01-12T16:16:25.229Z,57.47
2019-01-12T16:19:02.377Z,47.30
2019-01-12T16:24:24.149Z,51.47
2019-01-12T16:29:48.391Z,54.87
2019-01-12T16:32:20.011Z,57.87
2019-01-12T16:34:48.955Z,54.27
2019-01-12T16:40:17.092Z,48.10
2019-01-12T16:42:51.288Z,54.90
2019-01-12T16:45:24.293Z,61.97
2019-01-12T16:50:55.178Z,60.10
2019-01-12T16:53:47.938Z,51.20
2019-01-12T17:00:29.759Z,59.90
2019-01-12T17:01:55.875Z,64.30
2019-01-12T17:04:24.538Z,57.67
2019-01-12T18:41:59.022Z,58.93
2019-01-12T18:44:32.588Z,71.60
2019-01-12T18:46:58.278Z,65.80
2019-01-12T18:49:50.390Z,67.03
2019-01-12T18:52:20.619Z,67.43
2019-01-12T18:54:49.379Z,148.40
2019-01-12T18:57:18.042Z,64.93
2019-01-12T18:59:54.467Z,69.87
2019-01-12T19:02:21.608Z,69.87
2019-01-12T19:04:50.476Z,68.57
2019-01-12T19:07:19.293Z,60.03
2019-01-12T19:09:47.974Z,66.87
2019-01-12T19:12:17.363Z,69.27
2019-01-12T19:14:47.183Z,66.63
2019-01-12T19:17:15.882Z,65.07
2019-01-12T19:19:44.646Z,65.10
2019-01-12T19:22:13.365Z,71.20
2019-01-12T19:24:43.445Z,62.17
2019-01-12T19:27:12.310Z,61.50
2019-01-12T19:29:41.009Z,63.03
2019-01-12T19:32:11.259Z,64.20
2019-01-12T19:34:39.973Z,64.37
2019-01-12T19:37:08.666Z,59.93
2019-01-12T19:39:37.341Z,62.47
2019-01-12T19:42:06.088Z,86.33
2019-01-12T19:44:36.354Z,64.33
2019-01-12T19:47:05.101Z,63.57
2019-01-12T19:49:36.962Z,66.30
2019-01-12T19:52:05.749Z,63.43
2019-01-12T19:54:34.411Z,68.53
2019-01-12T19:57:04.769Z,61.53
2019-01-12T19:59:34.490Z,68.40
2019-01-12T20:02:03.188Z,68.37
2019-01-12T20:04:31.805Z,60.40
2019-01-12T20:07:00.615Z,60.93
2019-01-12T20:09:36.929Z,61.47
2019-01-12T20:12:05.852Z,63.10
2019-01-12T20:14:34.588Z,70.53
2019-01-12T20:17:04.906Z,66.20
2019-01-12T20:19:33.752Z,65.20
2019-01-12T20:22:04.002Z,81.73
2019-01-12T20:24:39.870Z,82.37
2019-01-12T20:27:08.551Z,68.60
2019-01-12T20:29:41.746Z,64.20
2019-01-12T20:32:25.313Z,61.57
2019-01-12T20:34:54.533Z,62.13
2019-01-12T20:37:41.254Z,58.93
2019-01-12T20:40:15.640Z,67.57
2019-01-12T20:42:47.427Z,63.83
2019-01-12T20:45:47.548Z,63.43
2019-01-12T20:48:37.312Z,61.60
2019-01-12T20:51:14.793Z,65.77
2019-01-12T20:54:11.161Z,63.00
2019-01-12T20:57:05.423Z,64.27
2019-01-12T20:59:54.843Z,73.00
2019-01-12T21:02:45.558Z,62.63
2019-01-12T21:05:29.097Z,59.40
2019-01-12T21:08:08.190Z,60.20
2019-01-12T21:10:48.810Z,56.03
2019-01-12T21:13:41.234Z,60.70
2019-01-12T21:16:16.142Z,58.43
2019-01-12T21:18:44.818Z,60.90
2019-01-12T21:21:15.286Z,58.87
2019-01-12T21:23:43.957Z,60.47
2019-01-12T21:26:17.748Z,59.77
2019-01-12T21:28:46.589Z,66.40
2019-01-12T21:31:15.293Z,61.60
2019-01-12T21:33:43.992Z,63.67
2019-01-12T21:36:12.680Z,62.40
2019-01-12T21:38:41.377Z,56.90
2019-01-12T21:41:10.085Z,65.67
2019-01-12T21:43:38.811Z,62.10
2019-01-12T21:46:07.494Z,62.03
2019-01-12T21:48:36.333Z,66.03
2019-01-12T21:51:05.020Z,62.47
2019-01-12T21:53:33.638Z,68.57
2019-01-12T21:56:02.354Z,62.10
2019-01-12T21:58:34.120Z,60.77
2019-01-12T22:01:04.386Z,63.87
2019-01-12T22:03:34.693Z,68.07
2019-01-12T22:06:06.260Z,74.58
2019-01-12T22:09:12.960Z,64.07
2019-01-12T22:11:44.351Z,58.83
2019-01-12T22:14:13.552Z,68.40
2019-01-12T22:16:42.265Z,71.40
2019-01-12T22:19:13.960Z,71.30
2019-01-12T22:21:42.608Z,68.90
2019-01-12T22:24:13.966Z,66.07
2019-01-12T22:26:42.665Z,71.33
2019-01-12T22:29:11.340Z,61.93
2019-01-12T22:31:40.006Z,61.00
2019-01-12T22:34:08.719Z,64.63
2019-01-12T22:36:38.566Z,62.60
2019-01-12T22:39:07.820Z,59.73
2019-01-12T22:41:36.645Z,63.07
2019-01-12T22:44:05.319Z,64.30
2019-01-12T22:46:34.050Z,68.23
2019-01-12T22:49:02.707Z,64.17
2019-01-12T22:51:31.354Z,67.27
2019-01-12T22:54:00.029Z,72.70
2019-01-12T22:56:28.764Z,65.37
2019-01-12T22:58:57.496Z,68.90
2019-01-12T23:01:29.256Z,78.37
2019-01-12T23:03:57.957Z,93.70
2019-01-12T23:06:26.622Z,66.70
2019-01-12T23:08:55.305Z,66.40
2019-01-12T23:11:23.980Z,65.77
2019-01-12T23:13:52.686Z,65.07
2019-01-12T23:16:21.356Z,70.20
2019-01-12T23:18:50.074Z,62.97
2019-01-12T23:21:18.733Z,66.63
2019-01-12T23:23:50.107Z,66.97
2019-01-12T23:26:18.768Z,62.00
2019-01-12T23:28:47.565Z,68.07
2019-01-12T23:31:17.519Z,68.07
2019-01-12T23:33:52.258Z,70.27
2019-01-12T23:36:20.953Z,66.43
2019-01-12T23:38:49.640Z,70.43
2019-01-12T23:41:18.370Z,65.90
2019-01-12T23:43:47.057Z,74.67
2019-01-12T23:46:15.747Z,76.07
2019-01-12T23:48:44.735Z,71.27
2019-01-12T23:51:40.768Z,69.47
2019-01-12T23:54:09.412Z,78.83
2019-01-12T23:56:38.093Z,81.73
2019-01-12T23:59:06.813Z,89.67
